createdAt,value
2024-04-23T00:00:33.974Z,2.56
2024-04-23T00:01:34.037Z,2.59
2024-04-23T00:02:33.980Z,2.59
2024-04-23T00:03:33.955Z,2.59
2024-04-23T00:04:34.015Z,2.56
2024-04-23T00:05:33.944Z,2.52
2024-04-23T00:06:33.935Z,2.52
2024-04-23T00:07:33.907Z,2.52
2024-04-23T00:08:33.903Z,2.55
2024-04-23T00:09:33.895Z,2.53
2024-04-23T00:10:33.996Z,2.51
2024-04-23T00:11:33.950Z,2.53
2024-04-23T00:12:33.868Z,2.59
2024-04-23T00:13:33.860Z,2.56
2024-04-23T00:14:33.815Z,2.53
2024-04-23T00:15:33.826Z,2.53
2024-04-23T00:16:33.875Z,2.52
2024-04-23T00:17:33.962Z,2.52
2024-04-23T00:18:33.939Z,2.53
2024-04-23T00:19:33.839Z,2.53
2024-04-23T00:20:33.806Z,2.51
2024-04-23T00:21:33.779Z,2.51
2024-04-23T00:22:33.816Z,2.49
2024-04-23T00:23:33.794Z,2.48
2024-04-23T00:24:33.814Z,2.46
2024-04-23T00:25:33.870Z,2.46
2024-04-23T00:26:33.707Z,2.40
2024-04-23T00:27:33.700Z,2.38
2024-04-23T00:28:33.747Z,2.38
2024-04-23T00:29:33.709Z,2.35
2024-04-23T00:30:33.689Z,2.38
2024-04-23T00:31:33.704Z,2.35
2024-04-23T00:32:33.731Z,2.33
2024-04-23T00:33:33.677Z,2.33
2024-04-23T00:34:33.679Z,2.34
2024-04-23T00:35:33.623Z,2.35
2024-04-23T00:36:33.596Z,2.34
2024-04-23T00:37:33.650Z,2.34
2024-04-23T00:38:33.590Z,2.33
2024-04-23T00:39:33.599Z,2.33
2024-04-23T00:40:33.667Z,2.31
2024-04-23T00:41:35.910Z,2.28
2024-04-23T00:42:33.547Z,2.31
2024-04-23T00:43:33.588Z,2.33
2024-04-23T00:44:33.574Z,2.33
2024-04-23T00:45:33.534Z,2.31
2024-04-23T00:46:33.536Z,2.23
2024-04-23T00:47:33.574Z,2.22
2024-04-23T00:48:33.576Z,2.22
2024-04-23T00:49:33.504Z,2.17
2024-04-23T00:50:33.467Z,2.13
2024-04-23T00:51:33.466Z,2.13
2024-04-23T00:52:33.502Z,2.08
2024-04-23T00:53:33.487Z,2.06
2024-04-23T00:54:33.440Z,2.06
2024-04-23T00:55:33.510Z,2.09
2024-04-23T00:56:33.427Z,2.06
2024-04-23T00:57:33.413Z,2.01
2024-04-23T00:58:33.423Z,1.98
2024-04-23T00:59:33.391Z,1.93
2024-04-23T01:00:33.383Z,1.98
2024-04-23T01:01:33.413Z,2.01
2024-04-23T01:02:33.402Z,1.97
2024-04-23T01:03:33.393Z,1.97
2024-04-23T01:04:33.395Z,1.89
2024-04-23T01:05:33.355Z,1.82
2024-04-23T01:06:33.307Z,1.80
2024-04-23T01:07:33.355Z,1.79
2024-04-23T01:08:33.289Z,1.80
2024-04-23T01:09:33.280Z,1.82
2024-04-23T01:10:33.354Z,1.79
2024-04-23T01:11:33.283Z,1.82
2024-04-23T01:12:33.283Z,1.83
2024-04-23T01:13:33.334Z,1.80
2024-04-23T01:14:33.227Z,1.80
2024-04-23T01:15:33.223Z,1.78
2024-04-23T01:16:33.274Z,1.79
2024-04-23T01:17:33.223Z,1.78
2024-04-23T01:18:33.196Z,1.76
2024-04-23T01:19:33.232Z,1.78
2024-04-23T01:20:33.161Z,1.73
2024-04-23T01:21:33.185Z,1.73
2024-04-23T01:22:33.161Z,1.72
2024-04-23T01:23:33.144Z,1.71
2024-04-23T01:24:33.126Z,1.68
2024-04-23T01:25:33.137Z,1.64
2024-04-23T01:26:33.145Z,1.64
2024-04-23T01:27:33.116Z,1.62
2024-04-23T01:28:33.119Z,1.60
2024-04-23T01:29:33.084Z,1.60
2024-04-23T01:30:33.074Z,1.58
2024-04-23T01:31:33.092Z,1.58
2024-04-23T01:32:33.147Z,1.55
2024-04-23T01:33:33.118Z,1.55
2024-04-23T01:34:33.115Z,1.58
2024-04-23T01:35:33.047Z,1.57
2024-04-23T01:36:33.023Z,1.60
2024-04-23T01:37:33.084Z,1.60
2024-04-23T01:38:32.996Z,1.58
2024-04-23T01:39:33.031Z,1.61
2024-04-23T01:40:33.000Z,1.61
2024-04-23T01:41:32.943Z,1.64
2024-04-23T01:42:32.969Z,1.64
2024-04-23T01:43:32.955Z,1.61
2024-04-23T01:44:32.922Z,1.57
2024-04-23T01:45:32.946Z,1.55
2024-04-23T01:46:32.965Z,1.57
2024-04-23T01:47:32.925Z,1.57
2024-04-23T01:48:32.931Z,1.55
2024-04-23T01:49:32.927Z,1.54
2024-04-23T01:50:32.874Z,1.54
2024-04-23T01:51:32.857Z,1.52
2024-04-23T01:52:32.859Z,1.47
2024-04-23T01:53:32.857Z,1.43
2024-04-23T01:54:32.843Z,1.40
2024-04-23T01:55:32.859Z,1.40
2024-04-23T01:56:32.812Z,1.40
2024-04-23T01:57:32.805Z,1.40
2024-04-23T01:58:32.868Z,1.39
2024-04-23T01:59:32.859Z,1.42
2024-04-23T02:00:32.776Z,1.43
2024-04-23T02:01:32.783Z,1.44
2024-04-23T02:02:32.806Z,1.47
2024-04-23T02:03:32.816Z,1.47
2024-04-23T02:04:32.764Z,1.43
2024-04-23T02:05:32.715Z,1.40
2024-04-23T02:06:32.704Z,1.42
2024-04-23T02:07:32.767Z,1.40
2024-04-23T02:08:32.692Z,1.39
2024-04-23T02:09:32.707Z,1.37
2024-04-23T02:10:32.722Z,1.39
2024-04-23T02:11:32.787Z,1.39
2024-04-23T02:12:32.672Z,1.40
2024-04-23T02:13:32.666Z,1.40
2024-04-23T02:14:32.626Z,1.43
2024-04-23T02:15:32.659Z,1.43
2024-04-23T02:16:32.665Z,1.44
2024-04-23T02:17:32.700Z,1.47
2024-04-23T02:18:32.635Z,1.54
2024-04-23T02:19:32.615Z,1.57
2024-04-23T02:20:32.615Z,1.60
2024-04-23T02:21:32.558Z,1.58
2024-04-23T02:22:32.585Z,1.60
2024-04-23T02:23:32.550Z,1.61
2024-04-23T02:24:32.530Z,1.58
2024-04-23T02:25:32.575Z,1.60
2024-04-23T02:26:32.531Z,1.61
2024-04-23T02:27:32.516Z,1.61
2024-04-23T02:28:32.490Z,1.61
2024-04-23T02:29:32.480Z,1.61
2024-04-23T02:30:32.489Z,1.60
2024-04-23T02:31:32.552Z,1.61
2024-04-23T02:32:32.533Z,1.61
2024-04-23T02:33:32.560Z,1.61
2024-04-23T02:34:32.521Z,1.64
2024-04-23T02:35:32.403Z,1.69
2024-04-23T02:36:32.417Z,1.71
2024-04-23T02:37:32.424Z,1.71
2024-04-23T02:38:32.378Z,1.73
2024-04-23T02:39:32.384Z,1.71
2024-04-23T02:40:32.397Z,1.72
2024-04-23T02:41:32.372Z,1.68
2024-04-23T02:42:32.368Z,1.64
2024-04-23T02:43:32.372Z,1.60
2024-04-23T02:44:32.329Z,1.51
2024-04-23T02:45:32.345Z,1.52
2024-04-23T02:46:32.355Z,1.47
2024-04-23T02:47:32.342Z,1.46
2024-04-23T02:48:32.340Z,1.42
2024-04-23T02:49:32.320Z,1.39
2024-04-23T02:50:32.288Z,1.40
2024-04-23T02:51:32.283Z,1.42
2024-04-23T02:52:32.927Z,1.42
2024-04-23T02:53:32.250Z,1.46
2024-04-23T02:54:32.262Z,1.44
2024-04-23T02:55:32.298Z,1.37
2024-04-23T02:56:32.214Z,1.34
2024-04-23T02:57:32.203Z,1.32
2024-04-23T02:58:32.214Z,1.32
2024-04-23T02:59:32.213Z,1.29
2024-04-23T03:00:32.195Z,1.26
2024-04-23T03:01:32.205Z,1.24
2024-04-23T03:02:32.326Z,1.22
2024-04-23T03:03:32.199Z,1.24
2024-04-23T03:04:32.176Z,1.26
2024-04-23T03:05:32.114Z,1.25
2024-04-23T03:06:32.107Z,1.28
2024-04-23T03:07:32.132Z,1.25
2024-04-23T03:08:35.506Z,1.26
2024-04-23T03:09:32.113Z,1.26
2024-04-23T03:10:32.168Z,1.33
2024-04-23T03:11:32.081Z,1.32
2024-04-23T03:12:32.044Z,1.29
2024-04-23T03:13:32.087Z,1.29
2024-04-23T03:14:32.051Z,1.29
2024-04-23T03:15:32.042Z,1.32
2024-04-23T03:16:32.086Z,1.28
2024-04-23T03:17:32.141Z,1.28
2024-04-23T03:18:32.037Z,1.26
2024-04-23T03:19:32.003Z,1.24
2024-04-23T03:20:32.011Z,1.25
2024-04-23T03:21:31.963Z,1.22
2024-04-23T03:22:32.000Z,1.18
2024-04-23T03:23:31.963Z,1.15
2024-04-23T03:24:31.923Z,1.15
2024-04-23T03:25:31.948Z,1.14
2024-04-23T03:26:31.901Z,1.08
2024-04-23T03:27:31.906Z,1.08
2024-04-23T03:28:31.916Z,1.08
2024-04-23T03:29:31.893Z,1.06
2024-04-23T03:30:31.867Z,1.08
2024-04-23T03:31:31.891Z,1.08
2024-04-23T03:32:31.939Z,1.07
2024-04-23T03:33:31.804Z,1.06
2024-04-23T03:34:31.810Z,1.06
2024-04-23T03:35:31.758Z,1.06
2024-04-23T03:36:31.754Z,1.03
2024-04-23T03:37:31.822Z,1.01
2024-04-23T03:38:31.726Z,1.04
2024-04-23T03:39:31.753Z,1.03
2024-04-23T03:40:31.746Z,1.01
2024-04-23T03:41:31.764Z,1.00
2024-04-23T03:42:31.752Z,1.03
2024-04-23T03:43:31.735Z,1.01
2024-04-23T03:44:31.645Z,1.01
2024-04-23T03:45:31.655Z,1.00
2024-04-23T03:46:31.657Z,0.98
2024-04-23T03:47:31.720Z,0.90
2024-04-23T03:48:31.641Z,0.89
2024-04-23T03:49:31.693Z,0.86
2024-04-23T03:50:31.615Z,0.85
2024-04-23T03:51:31.628Z,0.80
2024-04-23T03:52:31.625Z,0.79
2024-04-23T03:53:31.577Z,0.79
2024-04-23T03:54:31.564Z,0.78
2024-04-23T03:55:31.627Z,0.79
2024-04-23T03:56:31.557Z,0.76
2024-04-23T03:57:31.562Z,0.72
2024-04-23T03:58:31.555Z,0.75
2024-04-23T03:59:31.514Z,0.78
2024-04-23T04:00:31.530Z,0.78
2024-04-23T04:01:31.568Z,0.78
2024-04-23T04:02:31.671Z,0.78
2024-04-23T04:03:31.593Z,0.78
2024-04-23T04:04:31.502Z,0.79
2024-04-23T04:05:31.488Z,0.79
2024-04-23T04:06:31.441Z,0.78
2024-04-23T04:07:31.449Z,0.75
2024-04-23T04:08:31.439Z,0.75
2024-04-23T04:09:31.458Z,0.76
2024-04-23T04:10:31.447Z,0.75
2024-04-23T04:11:31.449Z,0.72
2024-04-23T04:12:31.380Z,0.70
2024-04-23T04:13:31.434Z,0.70
2024-04-23T04:14:31.387Z,0.76
2024-04-23T04:15:31.368Z,0.76
2024-04-23T04:16:35.232Z,0.78
2024-04-23T04:17:31.457Z,0.79
2024-04-23T04:18:31.340Z,0.78
2024-04-23T04:19:31.317Z,0.76
2024-04-23T04:20:31.304Z,0.75
2024-04-23T04:21:31.288Z,0.75
2024-04-23T04:22:31.326Z,0.75
2024-04-23T04:23:31.290Z,0.72
2024-04-23T04:24:31.269Z,0.79
2024-04-23T04:25:31.265Z,0.80
2024-04-23T04:26:31.236Z,0.79
2024-04-23T04:27:31.245Z,0.76
2024-04-23T04:28:31.462Z,0.75
2024-04-23T04:29:31.209Z,0.75
2024-04-23T04:30:31.215Z,0.71
2024-04-23T04:31:31.219Z,0.75
2024-04-23T04:32:31.203Z,0.75
2024-04-23T04:33:31.209Z,0.76
2024-04-23T04:34:31.189Z,0.82
2024-04-23T04:35:31.150Z,0.80
2024-04-23T04:36:31.187Z,0.85
2024-04-23T04:37:31.202Z,0.89
2024-04-23T04:38:31.150Z,0.90
2024-04-23T04:39:31.116Z,0.90
2024-04-23T04:40:31.123Z,0.92
2024-04-23T04:41:31.119Z,0.90
2024-04-23T04:42:31.083Z,0.92
2024-04-23T04:43:31.128Z,0.97
2024-04-23T04:44:31.075Z,0.97
2024-04-23T04:45:31.060Z,0.98
2024-04-23T04:46:31.122Z,1.01
2024-04-23T04:47:31.156Z,1.03
2024-04-23T04:48:31.057Z,1.10
2024-04-23T04:49:31.025Z,1.16
2024-04-23T04:50:31.014Z,1.44
2024-04-23T04:51:31.015Z,2.04
2024-04-23T04:52:31.035Z,2.82
2024-04-23T04:53:30.992Z,3.60
2024-04-23T04:54:30.955Z,4.42
2024-04-23T04:55:30.984Z,4.96
2024-04-23T04:56:30.970Z,5.32
2024-04-23T04:57:30.949Z,5.73
2024-04-23T04:58:30.986Z,6.16
2024-04-23T04:59:30.922Z,6.46
2024-04-23T05:00:30.875Z,6.77
2024-04-23T05:01:30.942Z,7.02
2024-04-23T05:02:30.889Z,7.29
2024-04-23T05:03:30.848Z,7.47
2024-04-23T05:04:30.915Z,7.56
2024-04-23T05:05:30.882Z,7.63
2024-04-23T05:06:30.848Z,7.63
2024-04-23T05:07:30.891Z,7.63
2024-04-23T05:08:30.813Z,7.53
2024-04-23T05:09:30.814Z,7.56
2024-04-23T05:10:30.848Z,8.08
2024-04-23T05:11:30.815Z,8.36
2024-04-23T05:12:30.788Z,8.53
2024-04-23T05:13:30.801Z,8.48
2024-04-23T05:14:30.779Z,8.50
2024-04-23T05:15:30.745Z,8.83
2024-04-23T05:16:30.786Z,8.93
2024-04-23T05:17:30.797Z,8.91
2024-04-23T05:18:30.719Z,8.91
2024-04-23T05:19:30.724Z,9.09
2024-04-23T05:20:30.713Z,9.05
2024-04-23T05:21:37.728Z,9.28
2024-04-23T05:22:30.703Z,9.48
2024-04-23T05:23:30.656Z,9.45
2024-04-23T05:24:30.649Z,9.32
2024-04-23T05:25:30.665Z,9.30
2024-04-23T05:26:30.616Z,8.96
2024-04-23T05:27:30.624Z,9.16
2024-04-23T05:28:30.625Z,9.31
2024-04-23T05:29:30.646Z,9.30
2024-04-23T05:30:30.604Z,9.12
2024-04-23T05:31:30.633Z,9.45
2024-04-23T05:32:30.628Z,9.13
2024-04-23T05:33:30.745Z,8.86
2024-04-23T05:34:30.638Z,8.10
2024-04-23T05:35:30.545Z,6.97
2024-04-23T05:36:30.525Z,6.30
2024-04-23T05:37:30.675Z,5.64
2024-04-23T05:38:30.578Z,5.31
2024-04-23T05:39:30.516Z,5.23
2024-04-23T05:40:30.549Z,5.25
2024-04-23T05:41:30.528Z,5.60
2024-04-23T05:42:30.469Z,5.78
2024-04-23T05:43:30.490Z,6.01
2024-04-23T05:44:30.470Z,6.21
2024-04-23T05:45:30.439Z,6.61
2024-04-23T05:46:30.453Z,7.17
2024-04-23T05:47:30.707Z,7.81
2024-04-23T05:48:30.468Z,8.78
2024-04-23T05:49:30.461Z,8.84
2024-04-23T05:50:30.392Z,8.66
2024-04-23T05:51:30.365Z,8.96
2024-04-23T05:52:30.924Z,9.25
2024-04-23T05:53:30.418Z,8.75
2024-04-23T05:54:30.383Z,8.11
2024-04-23T05:55:30.371Z,8.15
2024-04-23T05:56:30.367Z,7.94
2024-04-23T05:57:30.379Z,7.31
2024-04-23T05:58:30.346Z,7.67
2024-04-23T05:59:30.309Z,7.75
2024-04-23T06:00:30.478Z,7.60
2024-04-23T06:01:30.336Z,7.93
2024-04-23T06:02:30.303Z,7.72
2024-04-23T06:03:30.303Z,7.56
2024-04-23T06:04:30.301Z,7.31
2024-04-23T06:05:30.249Z,6.90
2024-04-23T06:06:30.308Z,6.21
2024-04-23T06:07:30.218Z,5.22
2024-04-23T06:08:30.218Z,4.75
2024-04-23T06:09:30.183Z,4.44
2024-04-23T06:10:30.232Z,4.43
2024-04-23T06:11:30.248Z,4.40
2024-04-23T06:12:30.166Z,4.88
2024-04-23T06:13:30.173Z,5.27
2024-04-23T06:14:30.214Z,5.14
2024-04-23T06:15:30.156Z,4.96
2024-04-23T06:16:30.175Z,4.64
2024-04-23T06:17:35.951Z,4.89
2024-04-23T06:18:30.178Z,5.37
2024-04-23T06:19:30.161Z,5.73
2024-04-23T06:20:30.130Z,6.30
2024-04-23T06:21:30.050Z,7.22
2024-04-23T06:22:30.091Z,7.75
2024-04-23T06:23:30.029Z,8.53
2024-04-23T06:24:30.054Z,9.09
2024-04-23T06:25:30.044Z,9.18
2024-04-23T06:26:30.066Z,9.24
2024-04-23T06:27:30.017Z,9.10
2024-04-23T06:28:30.067Z,8.93
2024-04-23T06:29:30.005Z,9.13
2024-04-23T06:30:30.074Z,8.63
2024-04-23T06:31:31.828Z,8.54
2024-04-23T06:32:30.041Z,8.83
2024-04-23T06:33:29.955Z,8.94
2024-04-23T06:34:29.967Z,8.87
2024-04-23T06:35:29.959Z,9.21
2024-04-23T06:36:29.906Z,9.63
2024-04-23T06:37:29.940Z,10.00
2024-04-23T06:38:29.927Z,10.09
2024-04-23T06:39:29.900Z,10.09
2024-04-23T06:40:29.900Z,10.18
2024-04-23T06:41:29.860Z,10.36
2024-04-23T06:42:29.875Z,10.76
2024-04-23T06:43:29.906Z,11.21
2024-04-23T06:44:29.887Z,10.92
2024-04-23T06:45:29.823Z,10.77
2024-04-23T06:46:29.830Z,10.26
2024-04-23T06:47:29.861Z,10.00
2024-04-23T06:48:29.829Z,9.78
2024-04-23T06:49:29.807Z,9.97
2024-04-23T06:50:29.788Z,9.96
2024-04-23T06:51:29.766Z,9.49
2024-04-23T06:52:29.863Z,9.04
2024-04-23T06:53:29.819Z,9.01
2024-04-23T06:54:29.717Z,8.81
2024-04-23T06:55:29.841Z,8.75
2024-04-23T06:56:29.708Z,8.91
2024-04-23T06:57:29.737Z,8.81
2024-04-23T06:58:31.675Z,8.36
2024-04-23T06:59:29.693Z,8.08
2024-04-23T07:00:29.780Z,7.74
2024-04-23T07:01:29.678Z,7.37
2024-04-23T07:02:29.760Z,7.23
2024-04-23T07:03:29.700Z,7.12
2024-04-23T07:04:29.698Z,6.98
2024-04-23T07:05:29.619Z,6.63
2024-04-23T07:06:29.661Z,6.48
2024-04-23T07:07:29.636Z,6.07
2024-04-23T07:08:29.593Z,6.01
2024-04-23T07:09:29.587Z,5.96
2024-04-23T07:10:29.636Z,5.96
2024-04-23T07:11:29.656Z,5.98
2024-04-23T07:12:29.616Z,5.92
2024-04-23T07:13:29.568Z,5.68
2024-04-23T07:14:29.509Z,5.41
2024-04-23T07:15:29.520Z,5.56
2024-04-23T07:16:29.550Z,5.75
2024-04-23T07:17:29.695Z,5.82
2024-04-23T07:18:29.517Z,5.95
2024-04-23T07:19:29.553Z,5.83
2024-04-23T07:20:29.470Z,5.71
2024-04-23T07:21:29.479Z,5.78
2024-04-23T07:22:29.454Z,5.89
2024-04-23T07:23:29.427Z,6.04
2024-04-23T07:24:29.440Z,6.07
2024-04-23T07:25:29.430Z,6.11
2024-04-23T07:26:29.420Z,6.10
2024-04-23T07:27:29.424Z,6.04
2024-04-23T07:28:29.424Z,5.85
2024-04-23T07:29:29.370Z,5.68
2024-04-23T07:30:29.379Z,5.70
2024-04-23T07:31:29.355Z,5.64
2024-04-23T07:32:29.390Z,5.64
2024-04-23T07:33:29.499Z,5.64
2024-04-23T07:34:29.472Z,5.60
2024-04-23T07:35:29.438Z,5.63
2024-04-23T07:36:29.363Z,5.66
2024-04-23T07:37:29.302Z,5.83
2024-04-23T07:38:29.304Z,6.07
2024-04-23T07:39:29.300Z,6.13
2024-04-23T07:40:29.335Z,6.13
2024-04-23T07:41:29.285Z,6.07
2024-04-23T07:42:29.270Z,6.16
2024-04-23T07:43:29.359Z,6.09
2024-04-23T07:44:29.334Z,6.11
2024-04-23T07:45:29.234Z,6.04
2024-04-23T07:46:29.354Z,6.01
2024-04-23T07:47:29.301Z,6.01
2024-04-23T07:48:29.248Z,6.00
2024-04-23T07:49:29.287Z,6.00
2024-04-23T07:50:29.170Z,6.16
2024-04-23T07:51:29.375Z,6.14
2024-04-23T07:52:29.164Z,6.13
2024-04-23T07:53:29.154Z,5.96
2024-04-23T07:54:29.249Z,5.92
2024-04-23T07:55:29.121Z,5.89
2024-04-23T07:56:29.108Z,5.88
2024-04-23T07:57:29.090Z,5.95
2024-04-23T07:58:29.097Z,6.04
2024-04-23T07:59:29.091Z,6.07
2024-04-23T08:00:30.055Z,6.18
2024-04-23T08:01:29.075Z,6.44
2024-04-23T08:02:29.049Z,6.62
2024-04-23T08:03:29.055Z,6.87
2024-04-23T08:04:29.010Z,6.91
2024-04-23T08:05:29.032Z,6.83
2024-04-23T08:06:28.985Z,6.77
2024-04-23T08:07:29.004Z,6.65
2024-04-23T08:08:28.991Z,6.61
2024-04-23T08:09:28.950Z,6.53
2024-04-23T08:10:28.965Z,6.59
2024-04-23T08:11:29.064Z,6.69
2024-04-23T08:12:28.948Z,6.79
2024-04-23T08:13:28.908Z,6.97
2024-04-23T08:14:28.898Z,7.08
2024-04-23T08:15:28.919Z,6.81
2024-04-23T08:16:28.912Z,6.65
2024-04-23T08:17:29.079Z,6.59
2024-04-23T08:18:28.943Z,6.58
2024-04-23T08:19:28.830Z,6.53
2024-04-23T08:20:28.825Z,6.35
2024-04-23T08:21:28.831Z,6.35
2024-04-23T08:22:28.867Z,6.46
2024-04-23T08:23:28.794Z,6.40
2024-04-23T08:24:28.821Z,6.46
2024-04-23T08:25:28.792Z,6.33
2024-04-23T08:26:28.790Z,6.32
2024-04-23T08:27:28.810Z,6.21
2024-04-23T08:28:28.756Z,6.28
2024-04-23T08:29:28.763Z,6.21
2024-04-23T08:30:28.774Z,6.16
2024-04-23T08:31:28.755Z,6.19
2024-04-23T08:32:30.835Z,6.19
2024-04-23T08:33:28.771Z,6.44
2024-04-23T08:34:28.709Z,6.59
2024-04-23T08:35:28.766Z,6.68
2024-04-23T08:36:28.674Z,6.72
2024-04-23T08:37:28.662Z,6.97
2024-04-23T08:38:30.531Z,7.12
2024-04-23T08:39:28.723Z,7.24
2024-04-23T08:40:28.660Z,7.24
2024-04-23T08:41:28.727Z,7.27
2024-04-23T08:42:31.037Z,7.16
2024-04-23T08:43:28.638Z,7.17
2024-04-23T08:44:28.669Z,7.26
2024-04-23T08:45:28.663Z,7.13
2024-04-23T08:46:28.559Z,6.99
2024-04-23T08:47:28.754Z,6.95
2024-04-23T08:48:32.720Z,7.16
2024-04-23T08:49:28.705Z,7.35
2024-04-23T08:50:28.603Z,7.52
2024-04-23T08:51:28.537Z,7.60
2024-04-23T08:52:28.509Z,7.78
2024-04-23T08:53:28.510Z,7.93
2024-04-23T08:54:28.516Z,8.08
2024-04-23T08:55:28.527Z,8.25
2024-04-23T08:56:28.470Z,8.44
2024-04-23T08:57:28.458Z,8.29
2024-04-23T08:58:28.466Z,7.96
2024-04-23T08:59:28.486Z,7.49
2024-04-23T09:00:32.801Z,7.47
2024-04-23T09:01:28.488Z,7.47
2024-04-23T09:02:28.456Z,7.50
2024-04-23T09:03:28.414Z,7.38
2024-04-23T09:04:28.546Z,7.20
2024-04-23T09:05:28.440Z,7.31
2024-04-23T09:06:28.373Z,7.55
2024-04-23T09:07:32.945Z,7.58
2024-04-23T09:08:28.366Z,7.50
2024-04-23T09:09:28.350Z,7.74
2024-04-23T09:10:28.340Z,7.74
2024-04-23T09:11:28.580Z,7.58
2024-04-23T09:12:28.323Z,7.52
2024-04-23T09:13:28.327Z,7.63
2024-04-23T09:14:28.323Z,7.79
2024-04-23T09:15:28.302Z,8.03
2024-04-23T09:16:28.280Z,8.17
2024-04-23T09:17:28.343Z,8.03
2024-04-23T09:18:28.365Z,8.10
2024-04-23T09:19:28.274Z,8.28
2024-04-23T09:20:28.243Z,8.21
2024-04-23T09:21:28.256Z,8.35
2024-04-23T09:22:28.206Z,8.33
2024-04-23T09:23:28.222Z,8.18
2024-04-23T09:24:28.199Z,8.35
2024-04-23T09:25:28.185Z,8.45
2024-04-23T09:26:28.191Z,8.40
2024-04-23T09:27:28.188Z,8.26
2024-04-23T09:28:28.206Z,8.20
2024-04-23T09:29:28.211Z,7.93
2024-04-23T09:30:28.170Z,7.74
2024-04-23T09:31:28.247Z,7.66
2024-04-23T09:32:28.232Z,7.37
2024-04-23T09:33:28.285Z,7.20
2024-04-23T09:34:32.436Z,7.37
2024-04-23T09:35:28.123Z,7.59
2024-04-23T09:36:28.107Z,7.84
2024-04-23T09:37:28.069Z,7.97
2024-04-23T09:38:28.061Z,8.02
2024-04-23T09:39:28.139Z,7.93
2024-04-23T09:40:28.017Z,7.66
2024-04-23T09:41:28.272Z,7.60
2024-04-23T09:42:28.023Z,7.42
2024-04-23T09:43:27.994Z,7.32
2024-04-23T09:44:28.006Z,7.31
2024-04-23T09:45:27.990Z,7.32
2024-04-23T09:46:27.937Z,7.34
2024-04-23T09:47:27.994Z,7.45
2024-04-23T09:48:28.160Z,7.45
2024-04-23T09:49:27.954Z,7.41
2024-04-23T09:50:27.924Z,7.52
2024-04-23T09:51:27.914Z,7.56
2024-04-23T09:52:30.205Z,7.37
2024-04-23T09:53:27.867Z,7.40
2024-04-23T09:54:27.898Z,7.56
2024-04-23T09:55:27.884Z,7.79
2024-04-23T09:56:27.851Z,7.81
2024-04-23T09:57:27.867Z,8.04
2024-04-23T09:58:30.258Z,8.22
2024-04-23T09:59:27.855Z,8.25
2024-04-23T10:00:27.862Z,8.30
2024-04-23T10:01:27.849Z,8.15
2024-04-23T10:02:27.927Z,8.30
2024-04-23T10:03:27.912Z,8.36
2024-04-23T10:04:30.297Z,8.57
2024-04-23T10:05:27.814Z,8.62
2024-04-23T10:06:27.788Z,8.50
2024-04-23T10:07:27.750Z,8.53
2024-04-23T10:08:27.786Z,8.54
2024-04-23T10:09:27.766Z,8.48
2024-04-23T10:10:27.685Z,8.51
2024-04-23T10:11:27.936Z,8.53
2024-04-23T10:12:27.677Z,8.66
2024-04-23T10:13:27.684Z,8.83
2024-04-23T10:14:27.680Z,8.86
2024-04-23T10:15:27.665Z,8.90
2024-04-23T10:16:27.630Z,8.97
2024-04-23T10:17:27.646Z,9.02
2024-04-23T10:18:27.700Z,8.76
2024-04-23T10:19:27.632Z,8.65
2024-04-23T10:20:27.602Z,8.57
2024-04-23T10:21:27.630Z,8.37
2024-04-23T10:22:27.572Z,8.08
2024-04-23T10:23:27.566Z,7.81
2024-04-23T10:24:27.578Z,7.84
2024-04-23T10:25:27.551Z,7.92
2024-04-23T10:26:27.546Z,8.11
2024-04-23T10:27:27.559Z,8.33
2024-04-23T10:28:27.506Z,8.62
2024-04-23T10:29:27.578Z,8.83
2024-04-23T10:30:27.510Z,9.04
2024-04-23T10:31:27.501Z,9.28
2024-04-23T10:32:27.715Z,9.12
2024-04-23T10:33:27.560Z,9.01
2024-04-23T10:34:27.495Z,8.93
2024-04-23T10:35:27.450Z,8.99
2024-04-23T10:36:27.439Z,8.91
2024-04-23T10:37:27.444Z,8.78
2024-04-23T10:38:27.428Z,8.66
2024-04-23T10:39:27.483Z,8.47
2024-04-23T10:40:27.547Z,8.50
2024-04-23T10:41:27.462Z,8.50
2024-04-23T10:42:27.382Z,8.47
2024-04-23T10:43:27.517Z,8.48
2024-04-23T10:44:27.487Z,8.42
2024-04-23T10:45:27.467Z,8.47
2024-04-23T10:46:27.351Z,8.60
2024-04-23T10:47:27.394Z,8.71
2024-04-23T10:48:27.469Z,8.69
2024-04-23T10:49:27.344Z,8.62
2024-04-23T10:50:27.364Z,8.57
2024-04-23T10:51:27.292Z,8.25
2024-04-23T10:52:27.324Z,8.15
2024-04-23T10:53:27.287Z,8.12
2024-04-23T10:54:27.355Z,8.26
2024-04-23T10:55:27.310Z,8.36
2024-04-23T10:56:27.235Z,8.45
2024-04-23T10:57:27.290Z,8.51
2024-04-23T10:58:27.315Z,8.62
2024-04-23T10:59:30.309Z,8.78
2024-04-23T11:00:27.230Z,8.90
2024-04-23T11:01:27.234Z,8.84
2024-04-23T11:02:27.364Z,8.81
2024-04-23T11:03:27.750Z,8.83
2024-04-23T11:04:27.222Z,8.83
2024-04-23T11:05:27.226Z,8.66
2024-04-23T11:06:27.281Z,8.63
2024-04-23T11:07:27.116Z,8.68
2024-04-23T11:08:27.093Z,8.78
2024-04-23T11:09:27.121Z,8.87
2024-04-23T11:10:27.163Z,8.73
2024-04-23T11:11:27.269Z,8.79
2024-04-23T11:12:27.107Z,8.72
2024-04-23T11:13:27.057Z,8.69
2024-04-23T11:14:27.069Z,8.63
2024-04-23T11:15:27.048Z,8.48
2024-04-23T11:16:27.027Z,8.40
2024-04-23T11:17:27.340Z,8.42
2024-04-23T11:18:27.450Z,8.57
2024-04-23T11:19:27.026Z,8.72
2024-04-23T11:20:26.976Z,8.90
2024-04-23T11:21:27.158Z,9.12
2024-04-23T11:22:26.972Z,8.96
2024-04-23T11:23:26.944Z,8.97
2024-04-23T11:24:26.991Z,9.20
2024-04-23T11:25:26.977Z,9.30
2024-04-23T11:26:26.999Z,9.28
2024-04-23T11:27:26.928Z,9.23
2024-04-23T11:28:26.900Z,9.04
2024-04-23T11:29:26.919Z,8.87
2024-04-23T11:30:26.981Z,8.90
2024-04-23T11:31:26.883Z,8.97
2024-04-23T11:32:26.971Z,8.88
2024-04-23T11:33:26.944Z,8.86
2024-04-23T11:34:26.869Z,8.93
2024-04-23T11:35:26.849Z,8.97
2024-04-23T11:36:26.983Z,8.90
2024-04-23T11:37:26.891Z,8.68
2024-04-23T11:38:26.813Z,8.53
2024-04-23T11:39:26.845Z,8.60
2024-04-23T11:40:26.829Z,8.50
2024-04-23T11:41:26.774Z,8.45
2024-04-23T11:42:26.769Z,8.54
2024-04-23T11:43:26.786Z,8.66
2024-04-23T11:44:26.761Z,8.81
2024-04-23T11:45:26.733Z,8.88
2024-04-23T11:46:26.755Z,8.96
2024-04-23T11:47:28.917Z,8.93
2024-04-23T11:48:26.769Z,8.94
2024-04-23T11:49:26.708Z,9.05
2024-04-23T11:50:26.688Z,9.15
2024-04-23T11:51:26.687Z,9.28
2024-04-23T11:52:26.680Z,9.42
2024-04-23T11:53:26.676Z,9.39
2024-04-23T11:54:26.667Z,9.39
2024-04-23T11:55:26.640Z,9.30
2024-04-23T11:56:26.635Z,9.09
2024-04-23T11:57:26.600Z,8.94
2024-04-23T11:58:26.660Z,8.87
2024-04-23T11:59:26.612Z,8.96
2024-04-23T12:00:26.600Z,9.12
2024-04-23T12:01:26.584Z,9.16
2024-04-23T12:02:26.560Z,9.25
2024-04-23T12:03:26.561Z,9.35
2024-04-23T12:04:26.615Z,9.38
2024-04-23T12:05:26.647Z,9.40
2024-04-23T12:06:26.646Z,9.48
2024-04-23T12:07:26.522Z,9.42
2024-04-23T12:08:26.483Z,9.42
2024-04-23T12:09:26.483Z,9.31
2024-04-23T12:10:26.484Z,9.27
2024-04-23T12:11:26.523Z,9.24
2024-04-23T12:12:26.444Z,9.15
2024-04-23T12:13:26.438Z,9.25
2024-04-23T12:14:26.458Z,9.49
2024-04-23T12:15:26.423Z,9.68
2024-04-23T12:16:26.388Z,9.78
2024-04-23T12:17:26.472Z,9.71
2024-04-23T12:18:26.525Z,9.50
2024-04-23T12:19:26.427Z,9.43
2024-04-23T12:20:26.462Z,9.38
2024-04-23T12:21:26.379Z,9.31
2024-04-23T12:22:26.361Z,9.31
2024-04-23T12:23:26.386Z,9.27
2024-04-23T12:24:28.632Z,9.10
2024-04-23T12:25:26.314Z,9.13
2024-04-23T12:26:26.330Z,9.02
2024-04-23T12:27:26.355Z,9.13
2024-04-23T12:28:26.281Z,9.24
2024-04-23T12:29:26.314Z,9.31
2024-04-23T12:30:27.130Z,9.21
2024-04-23T12:31:26.271Z,9.27
2024-04-23T12:32:26.382Z,9.38
2024-04-23T12:33:26.289Z,9.39
2024-04-23T12:34:26.248Z,9.27
2024-04-23T12:35:26.228Z,9.32
2024-04-23T12:36:26.241Z,9.50
2024-04-23T12:37:26.251Z,9.66
2024-04-23T12:38:26.212Z,9.75
2024-04-23T12:39:26.212Z,9.76
2024-04-23T12:40:26.167Z,9.67
2024-04-23T12:41:26.191Z,9.68
2024-04-23T12:42:26.503Z,9.75
2024-04-23T12:43:26.162Z,9.60
2024-04-23T12:44:26.108Z,9.45
2024-04-23T12:45:26.128Z,9.45
2024-04-23T12:46:26.097Z,9.31
2024-04-23T12:47:26.211Z,9.09
2024-04-23T12:48:26.237Z,9.06
2024-04-23T12:49:26.070Z,9.20
2024-04-23T12:50:26.064Z,9.39
2024-04-23T12:51:26.089Z,9.63
2024-04-23T12:52:26.202Z,9.96
2024-04-23T12:53:26.078Z,10.12
2024-04-23T12:54:26.005Z,10.06
2024-04-23T12:55:26.009Z,10.04
2024-04-23T12:56:26.011Z,10.07
2024-04-23T12:57:26.011Z,10.00
2024-04-23T12:58:25.970Z,9.88
2024-04-23T12:59:25.979Z,9.75
2024-04-23T13:00:25.964Z,9.64
2024-04-23T13:01:38.378Z,9.82
2024-04-23T13:02:26.077Z,9.83
2024-04-23T13:03:26.366Z,9.81
2024-04-23T13:04:26.014Z,9.73
2024-04-23T13:05:25.909Z,9.66
2024-04-23T13:06:25.911Z,9.58
2024-04-23T13:07:25.900Z,9.66
2024-04-23T13:08:25.888Z,9.70
2024-04-23T13:09:25.877Z,9.78
2024-04-23T13:10:25.854Z,9.86
2024-04-23T13:11:25.919Z,9.93
2024-04-23T13:12:26.731Z,9.83
2024-04-23T13:13:25.851Z,9.66
2024-04-23T13:14:25.822Z,9.57
2024-04-23T13:15:25.811Z,9.40
2024-04-23T13:16:38.308Z,9.28
2024-04-23T13:17:25.838Z,9.20